sensor_id;sensor_type;location;lat;lon;timestamp;pressure;altitude;pressure_sealevel;temperature;humidity
8699;BME280;4386;51.236;6.742;2022-11-04T00:00:22;99791.59;;;12.98;79.91
8699;BME280;4386;51.236;6.742;2022-11-04T00:01:30;99792.59;;;12.97;79.90
8699;BME280;4386;51.236;6.742;2022-11-04T00:02:33;99797.06;;;12.97;79.76
8699;BME280;4386;51.236;6.742;2022-11-04T00:03:35;99792.59;;;12.97;80.06
8699;BME280;4386;51.236;6.742;2022-11-04T00:04:37;99795.25;;;12.97;79.73
8699;BME280;4386;51.236;6.742;2022-11-04T00:05:40;99801.56;;;12.96;79.80
8699;BME280;4386;51.236;6.742;2022-11-04T00:06:42;99806.72;;;12.98;79.41
8699;BME280;4386;51.236;6.742;2022-11-04T00:07:44;99805.06;;;12.97;79.72
8699;BME280;4386;51.236;6.742;2022-11-04T00:09:10;99800.56;;;12.97;79.75
8699;BME280;4386;51.236;6.742;2022-11-04T00:10:12;99800.56;;;12.97;79.68
8699;BME280;4386;51.236;6.742;2022-11-04T00:11:14;99804.22;;;12.96;79.38
8699;BME280;4386;51.236;6.742;2022-11-04T00:12:35;99799.91;;;12.95;79.59
8699;BME280;4386;51.236;6.742;2022-11-04T00:13:38;99809.84;;;12.93;79.63
8699;BME280;4386;51.236;6.742;2022-11-04T00:14:40;99809.84;;;12.93;79.29
8699;BME280;4386;51.236;6.742;2022-11-04T00:15:42;99810.69;;;12.94;79.47
8699;BME280;4386;51.236;6.742;2022-11-04T00:17:03;99801.72;;;12.95;79.22
8699;BME280;4386;51.236;6.742;2022-11-04T00:18:20;99815.03;;;12.95;79.38
8699;BME280;4386;51.236;6.742;2022-11-04T00:19:22;99813.19;;;12.95;79.24
8699;BME280;4386;51.236;6.742;2022-11-04T00:20:24;99818.53;;;12.95;79.50
8699;BME280;4386;51.236;6.742;2022-11-04T00:21:45;99815.69;;;12.97;79.12
8699;BME280;4386;51.236;6.742;2022-11-04T00:23:05;99808.56;;;12.97;79.34
8699;BME280;4386;51.236;6.742;2022-11-04T00:24:25;99819.19;;;12.97;79.18
8699;BME280;4386;51.236;6.742;2022-11-04T00:25:44;99825.16;;;12.99;79.03
8699;BME280;4386;51.236;6.742;2022-11-04T00:27:05;99825.88;;;13.01;79.21
8699;BME280;4386;51.236;6.742;2022-11-04T00:28:28;99827.69;;;13.01;78.79
8699;BME280;4386;51.236;6.742;2022-11-04T00:29:45;99831.19;;;13.01;78.98
8699;BME280;4386;51.236;6.742;2022-11-04T00:30:47;99833.84;;;13.01;78.75
8699;BME280;4386;51.236;6.742;2022-11-04T00:31:49;99844.47;;;13.01;78.98
8699;BME280;4386;51.236;6.742;2022-11-04T00:33:09;99838.16;;;13.02;78.91
8699;BME280;4386;51.236;6.742;2022-11-04T00:34:26;99843.47;;;13.02;78.88
8699;BME280;4386;51.236;6.742;2022-11-04T00:35:29;99849.63;;;13.03;78.92
8699;BME280;4386;51.236;6.742;2022-11-04T00:36:31;99843.34;;;13.04;78.86
8699;BME280;4386;51.236;6.742;2022-11-04T00:37:36;99844.16;;;13.04;78.89
8699;BME280;4386;51.236;6.742;2022-11-04T00:38:37;99845.81;;;13.05;78.82
8699;BME280;4386;51.236;6.742;2022-11-04T00:39:40;99845.16;;;13.03;78.79
8699;BME280;4386;51.236;6.742;2022-11-04T00:40:41;99847.81;;;13.03;79.03
8699;BME280;4386;51.236;6.742;2022-11-04T00:41:44;99844.31;;;13.03;78.70
8699;BME280;4386;51.236;6.742;2022-11-04T00:42:46;99849.50;;;13.04;78.79
8699;BME280;4386;51.236;6.742;2022-11-04T00:43:50;99844.16;;;13.04;78.74
8699;BME280;4386;51.236;6.742;2022-11-04T00:44:51;99846.97;;;13.03;78.87
8699;BME280;4386;51.236;6.742;2022-11-04T00:45:54;99850.47;;;13.03;78.72
8699;BME280;4386;51.236;6.742;2022-11-04T00:46:56;99855.97;;;13.02;78.81
8699;BME280;4386;51.236;6.742;2022-11-04T00:47:58;99849.81;;;13.01;78.97
8699;BME280;4386;51.236;6.742;2022-11-04T00:49:00;99855.97;;;13.02;78.65
8699;BME280;4386;51.236;6.742;2022-11-04T00:50:02;99851.44;;;13.02;78.92
8699;BME280;4386;51.236;6.742;2022-11-04T00:51:05;99849.81;;;13.01;78.73
8699;BME280;4386;51.236;6.742;2022-11-04T00:52:06;99848.13;;;13.00;78.86
8699;BME280;4386;51.236;6.742;2022-11-04T00:53:09;99858.75;;;13.00;78.42
8699;BME280;4386;51.236;6.742;2022-11-04T00:54:12;99857.09;;;12.99;78.37
8699;BME280;4386;51.236;6.742;2022-11-04T00:55:14;99861.75;;;12.97;78.60
8699;BME280;4386;51.236;6.742;2022-11-04T00:56:16;99860.91;;;12.97;78.72
8699;BME280;4386;51.236;6.742;2022-11-04T00:57:18;99864.41;;;12.97;78.58
8699;BME280;4386;51.236;6.742;2022-11-04T00:58:20;99862.72;;;12.96;79.02
8699;BME280;4386;51.236;6.742;2022-11-04T00:59:23;99860.25;;;12.95;79.26
8699;BME280;4386;51.236;6.742;2022-11-04T01:00:26;99854.06;;;12.94;79.17
8699;BME280;4386;51.236;6.742;2022-11-04T01:01:28;99855.06;;;12.93;79.02
8699;BME280;4386;51.236;6.742;2022-11-04T01:02:30;99861.38;;;12.92;79.22
8699;BME280;4386;51.236;6.742;2022-11-04T01:03:32;99859.72;;;12.91;79.50
8699;BME280;4386;51.236;6.742;2022-11-04T01:04:35;99862.38;;;12.91;79.31
8699;BME280;4386;51.236;6.742;2022-11-04T01:05:36;99858.88;;;12.91;79.50
8699;BME280;4386;51.236;6.742;2022-11-04T01:06:39;99859.72;;;12.91;79.52
8699;BME280;4386;51.236;6.742;2022-11-04T01:07:45;99860.69;;;12.90;79.44
8699;BME280;4386;51.236;6.742;2022-11-04T01:08:48;99858.03;;;12.90;79.64
8699;BME280;4386;51.236;6.742;2022-11-04T01:09:49;99868.66;;;12.90;79.60
8699;BME280;4386;51.236;6.742;2022-11-04T01:10:52;99876.66;;;12.90;79.60
8699;BME280;4386;51.236;6.742;2022-11-04T01:11:54;99876.66;;;12.90;79.91
8699;BME280;4386;51.236;6.742;2022-11-04T01:12:56;99870.34;;;12.91;79.90
8699;BME280;4386;51.236;6.742;2022-11-04T01:13:58;99879.16;;;12.92;79.93
8699;BME280;4386;51.236;6.742;2022-11-04T01:15:03;99875.50;;;12.93;79.99
8699;BME280;4386;51.236;6.742;2022-11-04T01:16:08;99879.84;;;12.94;80.14
8699;BME280;4386;51.236;6.742;2022-11-04T01:17:10;99886.84;;;12.95;80.09
8699;BME280;4386;51.236;6.742;2022-11-04T01:18:13;99884.31;;;12.93;80.12
8699;BME280;4386;51.236;6.742;2022-11-04T01:19:16;99891.31;;;12.94;80.08
8699;BME280;4386;51.236;6.742;2022-11-04T01:20:18;99887.66;;;12.95;79.91
8699;BME280;4386;51.236;6.742;2022-11-04T01:21:20;99894.63;;;12.96;80.30
8699;BME280;4386;51.236;6.742;2022-11-04T01:22:22;99894.63;;;12.96;80.17
8699;BME280;4386;51.236;6.742;2022-11-04T01:23:24;99899.66;;;12.99;80.44
8699;BME280;4386;51.236;6.742;2022-11-04T01:24:26;99898.00;;;12.98;80.38
8699;BME280;4386;51.236;6.742;2022-11-04T01:25:28;99894.31;;;12.99;80.23
8699;BME280;4386;51.236;6.742;2022-11-04T01:26:30;99895.16;;;13.00;80.31
8699;BME280;4386;51.236;6.742;2022-11-04T01:27:33;99898.00;;;12.98;80.41
8699;BME280;4386;51.236;6.742;2022-11-04T01:28:35;99896.31;;;12.97;80.36
8699;BME280;4386;51.236;6.742;2022-11-04T01:29:38;99894.81;;;12.95;80.37
8699;BME280;4386;51.236;6.742;2022-11-04T01:30:40;99894.94;;;12.93;80.41
8699;BME280;4386;51.236;6.742;2022-11-04T01:31:43;99893.44;;;12.91;80.47
8699;BME280;4386;51.236;6.742;2022-11-04T01:32:44;99902.56;;;12.88;80.42
8699;BME280;4386;51.236;6.742;2022-11-04T01:33:47;99907.38;;;12.85;80.48
8699;BME280;4386;51.236;6.742;2022-11-04T01:34:49;99908.50;;;12.82;80.38
8699;BME280;4386;51.236;6.742;2022-11-04T01:35:52;99907.97;;;12.79;80.25
8699;BME280;4386;51.236;6.742;2022-11-04T01:36:53;99905.78;;;12.74;80.61
8699;BME280;4386;51.236;6.742;2022-11-04T01:37:56;99906.91;;;12.72;80.42
8699;BME280;4386;51.236;6.742;2022-11-04T01:38:58;99907.22;;;12.69;80.34
8699;BME280;4386;51.236;6.742;2022-11-04T01:40:01;99909.19;;;12.67;80.44
8699;BME280;4386;51.236;6.742;2022-11-04T01:41:02;99906.69;;;12.65;80.56
8699;BME280;4386;51.236;6.742;2022-11-04T01:42:05;99910.34;;;12.64;80.69
8699;BME280;4386;51.236;6.742;2022-11-04T01:43:11;99907.00;;;12.62;80.65
8699;BME280;4386;51.236;6.742;2022-11-04T01:44:50;99914.28;;;12.60;80.62
8699;BME280;4386;51.236;6.742;2022-11-04T01:45:57;99914.59;;;12.57;80.54
8699;BME280;4386;51.236;6.742;2022-11-04T01:47:00;99907.09;;;12.52;80.56
8699;BME280;4386;51.236;6.742;2022-11-04T01:48:07;99902.88;;;12.50;80.54
8699;BME280;4386;51.236;6.742;2022-11-04T01:49:22;99915.50;;;12.48;80.64
8699;BME280;4386;51.236;6.742;2022-11-04T01:50:29;99907.84;;;12.45;80.64
8699;BME280;4386;51.236;6.742;2022-11-04T01:51:32;99906.31;;;12.42;80.90
8699;BME280;4386;51.236;6.742;2022-11-04T01:52:42;99909.97;;;12.41;80.85
8699;BME280;4386;51.236;6.742;2022-11-04T01:53:46;99912.09;;;12.38;80.78
8699;BME280;4386;51.236;6.742;2022-11-04T01:54:53;99908.75;;;12.36;80.69
8699;BME280;4386;51.236;6.742;2022-11-04T01:55:58;99906.41;;;12.33;80.77
8699;BME280;4386;51.236;6.742;2022-11-04T01:57:04;99914.38;;;12.33;80.78
8699;BME280;4386;51.236;6.742;2022-11-04T01:58:12;99917.34;;;12.30;80.50
8699;BME280;4386;51.236;6.742;2022-11-04T01:59:19;99917.63;;;12.27;80.69
8699;BME280;4386;51.236;6.742;2022-11-04T02:00:21;99925.75;;;12.25;80.80
8699;BME280;4386;51.236;6.742;2022-11-04T02:01:25;99924.22;;;12.23;80.91
8699;BME280;4386;51.236;6.742;2022-11-04T02:02:27;99932.19;;;12.23;80.61
8699;BME280;4386;51.236;6.742;2022-11-04T02:03:34;99935.00;;;12.21;80.74
8699;BME280;4386;51.236;6.742;2022-11-04T02:04:38;99933.47;;;12.19;80.75
8699;BME280;4386;51.236;6.742;2022-11-04T02:05:41;99931.78;;;12.18;80.59
8699;BME280;4386;51.236;6.742;2022-11-04T02:06:43;99934.44;;;12.18;80.96
8699;BME280;4386;51.236;6.742;2022-11-04T02:07:49;99932.09;;;12.15;80.71
8699;BME280;4386;51.236;6.742;2022-11-04T02:08:52;99941.88;;;12.14;80.65
8699;BME280;4386;51.236;6.742;2022-11-04T02:09:54;99936.72;;;12.13;80.82
8699;BME280;4386;51.236;6.742;2022-11-04T02:10:58;99941.19;;;12.12;81.07
8699;BME280;4386;51.236;6.742;2022-11-04T02:12:02;99943.00;;;12.12;81.09
8699;BME280;4386;51.236;6.742;2022-11-04T02:13:22;99944.84;;;12.11;80.95
8699;BME280;4386;51.236;6.742;2022-11-04T02:14:25;99945.00;;;12.10;81.13
8699;BME280;4386;51.236;6.742;2022-11-04T02:15:34;99947.66;;;12.10;81.16
8699;BME280;4386;51.236;6.742;2022-11-04T02:16:43;99947.78;;;12.08;80.85
8699;BME280;4386;51.236;6.742;2022-11-04T02:18:15;99940.81;;;12.07;80.86
8699;BME280;4386;51.236;6.742;2022-11-04T02:19:36;99940.97;;;12.06;81.14
8699;BME280;4386;51.236;6.742;2022-11-04T02:20:51;99936.78;;;12.03;80.97
8699;BME280;4386;51.236;6.742;2022-11-04T02:22:16;99929.78;;;12.02;80.87
8699;BME280;4386;51.236;6.742;2022-11-04T02:23:37;99927.44;;;11.99;81.23
8699;BME280;4386;51.236;6.742;2022-11-04T02:25:00;99932.91;;;11.97;81.16
8699;BME280;4386;51.236;6.742;2022-11-04T02:28:07;99928.88;;;11.93;81.11
8699;BME280;4386;51.236;6.742;2022-11-04T02:29:29;99927.50;;;11.89;81.24
8699;BME280;4386;51.236;6.742;2022-11-04T02:30:39;99927.63;;;11.88;81.35
8699;BME280;4386;51.236;6.742;2022-11-04T02:31:52;99924.28;;;11.86;81.58
8699;BME280;4386;51.236;6.742;2022-11-04T02:33:09;99923.63;;;11.84;81.25
8699;BME280;4386;51.236;6.742;2022-11-04T02:34:19;99919.28;;;11.83;81.30
8699;BME280;4386;51.236;6.742;2022-11-04T02:35:26;99922.06;;;11.81;81.13
8699;BME280;4386;51.236;6.742;2022-11-04T02:36:37;99928.38;;;11.80;81.33
8699;BME280;4386;51.236;6.742;2022-11-04T02:37:52;99924.88;;;11.80;81.52
8699;BME280;4386;51.236;6.742;2022-11-04T02:38:59;99922.38;;;11.78;81.13
8699;BME280;4386;51.236;6.742;2022-11-04T02:40:17;99926.03;;;11.77;81.25
8699;BME280;4386;51.236;6.742;2022-11-04T02:41:29;99926.16;;;11.76;81.18
8699;BME280;4386;51.236;6.742;2022-11-04T02:42:41;99922.66;;;11.75;81.28
8699;BME280;4386;51.236;6.742;2022-11-04T02:43:51;99925.47;;;11.74;81.33
8699;BME280;4386;51.236;6.742;2022-11-04T02:45:09;99928.25;;;11.72;81.23
8699;BME280;4386;51.236;6.742;2022-11-04T02:46:18;99927.41;;;11.72;81.48
8699;BME280;4386;51.236;6.742;2022-11-04T02:47:25;99924.94;;;11.70;81.48
8699;BME280;4386;51.236;6.742;2022-11-04T02:48:35;99927.59;;;11.70;81.70
8699;BME280;4386;51.236;6.742;2022-11-04T02:49:42;99927.69;;;11.69;81.34
8699;BME280;4386;51.236;6.742;2022-11-04T02:50:50;99933.16;;;11.67;81.41
8699;BME280;4386;51.236;6.742;2022-11-04T02:51:57;99919.88;;;11.67;81.26
8699;BME280;4386;51.236;6.742;2022-11-04T02:53:08;99923.50;;;11.66;81.33
8699;BME280;4386;51.236;6.742;2022-11-04T02:54:16;99923.50;;;11.66;81.04
8699;BME280;4386;51.236;6.742;2022-11-04T02:55:25;99924.66;;;11.64;81.51
8699;BME280;4386;51.236;6.742;2022-11-04T02:56:28;99929.97;;;11.64;81.13
8699;BME280;4386;51.236;6.742;2022-11-04T02:57:35;99936.09;;;11.64;81.36
8699;BME280;4386;51.236;6.742;2022-11-04T02:58:42;99923.81;;;11.63;81.19
8699;BME280;4386;51.236;6.742;2022-11-04T02:59:49;99927.44;;;11.62;81.41
8699;BME280;4386;51.236;6.742;2022-11-04T03:00:55;99933.75;;;11.61;81.20
8699;BME280;4386;51.236;6.742;2022-11-04T03:02:02;99921.44;;;11.60;81.27
8699;BME280;4386;51.236;6.742;2022-11-04T03:03:08;99918.78;;;11.60;81.17
8699;BME280;4386;51.236;6.742;2022-11-04T03:04:15;99921.56;;;11.59;81.37
8699;BME280;4386;51.236;6.742;2022-11-04T03:05:21;99922.59;;;11.58;81.31
8699;BME280;4386;51.236;6.742;2022-11-04T03:06:26;99926.22;;;11.57;81.36
8699;BME280;4386;51.236;6.742;2022-11-04T03:07:32;99921.03;;;11.55;81.41
8699;BME280;4386;51.236;6.742;2022-11-04T03:08:39;99924.69;;;11.54;81.22
8699;BME280;4386;51.236;6.742;2022-11-04T03:09:48;99928.19;;;11.55;81.53
8699;BME280;4386;51.236;6.742;2022-11-04T03:10:52;99917.69;;;11.53;81.21
8699;BME280;4386;51.236;6.742;2022-11-04T03:11:59;99925.66;;;11.53;81.36
8699;BME280;4386;51.236;6.742;2022-11-04T03:13:05;99922.31;;;11.51;81.33
8699;BME280;4386;51.236;6.742;2022-11-04T03:14:15;99924.97;;;11.51;81.36
8699;BME280;4386;51.236;6.742;2022-11-04T03:15:19;99920.78;;;11.48;81.29
8699;BME280;4386;51.236;6.742;2022-11-04T03:16:29;99918.97;;;11.49;81.38
8699;BME280;4386;51.236;6.742;2022-11-04T03:17:36;99918.28;;;11.47;81.35
8699;BME280;4386;51.236;6.742;2022-11-04T03:18:48;99920.94;;;11.47;81.32
8699;BME280;4386;51.236;6.742;2022-11-04T03:19:56;99921.91;;;11.46;81.41
8699;BME280;4386;51.236;6.742;2022-11-04T03:21:01;99920.25;;;11.45;81.53
8699;BME280;4386;51.236;6.742;2022-11-04T03:22:06;99923.03;;;11.43;81.31
8699;BME280;4386;51.236;6.742;2022-11-04T03:23:11;99917.88;;;11.42;81.50
8699;BME280;4386;51.236;6.742;2022-11-04T03:24:13;99914.41;;;11.41;81.45
8699;BME280;4386;51.236;6.742;2022-11-04T03:25:16;99918.03;;;11.40;81.41
8699;BME280;4386;51.236;6.742;2022-11-04T03:26:21;99922.50;;;11.40;81.41
8699;BME280;4386;51.236;6.742;2022-11-04T03:27:30;99921.66;;;11.39;81.58
8699;BME280;4386;51.236;6.742;2022-11-04T03:28:38;99922.50;;;11.40;81.54
8699;BME280;4386;51.236;6.742;2022-11-04T03:29:48;99924.47;;;11.38;81.46
8699;BME280;4386;51.236;6.742;2022-11-04T03:30:55;99920.13;;;11.37;81.42
8699;BME280;4386;51.236;6.742;2022-11-04T03:32:06;99919.16;;;11.38;81.36
8699;BME280;4386;51.236;6.742;2022-11-04T03:33:18;99926.41;;;11.36;81.48
8699;BME280;4386;51.236;6.742;2022-11-04T03:34:23;99928.09;;;11.37;81.53
8699;BME280;4386;51.236;6.742;2022-11-04T03:35:25;99919.44;;;11.35;81.49
8699;BME280;4386;51.236;6.742;2022-11-04T03:36:29;99917.59;;;11.35;81.53
8699;BME280;4386;51.236;6.742;2022-11-04T03:37:33;99921.09;;;11.36;81.47
8699;BME280;4386;51.236;6.742;2022-11-04T03:38:36;99914.94;;;11.35;81.49
8699;BME280;4386;51.236;6.742;2022-11-04T03:39:38;99924.75;;;11.35;81.34
8699;BME280;4386;51.236;6.742;2022-11-04T03:40:41;99923.06;;;11.34;81.53
8699;BME280;4386;51.236;6.742;2022-11-04T03:41:46;99925.72;;;11.34;81.63
8699;BME280;4386;51.236;6.742;2022-11-04T03:42:55;99936.34;;;11.34;81.60
8699;BME280;4386;51.236;6.742;2022-11-04T03:43:58;99927.53;;;11.33;81.55
8699;BME280;4386;51.236;6.742;2022-11-04T03:45:01;99930.34;;;11.32;81.67
8699;BME280;4386;51.236;6.742;2022-11-04T03:46:04;99931.31;;;11.31;81.73
8699;BME280;4386;51.236;6.742;2022-11-04T03:47:08;99936.75;;;11.29;81.72
8699;BME280;4386;51.236;6.742;2022-11-04T03:48:11;99936.06;;;11.27;81.71
8699;BME280;4386;51.236;6.742;2022-11-04T03:49:14;99931.75;;;11.26;81.81
8699;BME280;4386;51.236;6.742;2022-11-04T03:50:22;99941.50;;;11.26;81.83
8699;BME280;4386;51.236;6.742;2022-11-04T03:51:27;99942.50;;;11.25;81.85
8699;BME280;4386;51.236;6.742;2022-11-04T03:52:28;99940.81;;;11.24;81.89
8699;BME280;4386;51.236;6.742;2022-11-04T03:53:31;99938.19;;;11.24;82.05
8699;BME280;4386;51.236;6.742;2022-11-04T03:54:34;99942.50;;;11.25;82.22
8699;BME280;4386;51.236;6.742;2022-11-04T03:55:42;99940.81;;;11.24;81.91
8699;BME280;4386;51.236;6.742;2022-11-04T03:57:12;99943.47;;;11.24;82.02
8699;BME280;4386;51.236;6.742;2022-11-04T03:58:25;99946.25;;;11.22;82.03
8699;BME280;4386;51.236;6.742;2022-11-04T03:59:41;99943.75;;;11.21;82.10
8699;BME280;4386;51.236;6.742;2022-11-04T04:00:52;99941.25;;;11.19;81.95
8699;BME280;4386;51.236;6.742;2022-11-04T04:02:04;99944.06;;;11.18;82.03
8699;BME280;4386;51.236;6.742;2022-11-04T04:03:14;99945.88;;;11.17;82.06
8699;BME280;4386;51.236;6.742;2022-11-04T04:04:22;99947.00;;;11.15;82.27
8699;BME280;4386;51.236;6.742;2022-11-04T04:05:29;99935.66;;;11.13;82.17
8699;BME280;4386;51.236;6.742;2022-11-04T04:06:34;99949.78;;;11.13;82.28
8699;BME280;4386;51.236;6.742;2022-11-04T04:07:40;99941.97;;;11.12;82.15
8699;BME280;4386;51.236;6.742;2022-11-04T04:08:48;99939.44;;;11.10;82.24
8699;BME280;4386;51.236;6.742;2022-11-04T04:09:56;99940.28;;;11.11;82.23
8699;BME280;4386;51.236;6.742;2022-11-04T04:11:06;99937.66;;;11.11;82.17
8699;BME280;4386;51.236;6.742;2022-11-04T04:12:12;99935.97;;;11.10;82.27
8699;BME280;4386;51.236;6.742;2022-11-04T04:13:22;99938.59;;;11.10;82.16
8699;BME280;4386;51.236;6.742;2022-11-04T04:14:30;99929.97;;;11.08;82.28
8699;BME280;4386;51.236;6.742;2022-11-04T04:15:43;99935.28;;;11.08;82.10
8699;BME280;4386;51.236;6.742;2022-11-04T04:16:48;99930.94;;;11.07;82.14
8699;BME280;4386;51.236;6.742;2022-11-04T04:17:55;99946.84;;;11.07;82.27
8699;BME280;4386;51.236;6.742;2022-11-04T04:19:03;99946.84;;;11.07;82.28
8699;BME280;4386;51.236;6.742;2022-11-04T04:20:11;99941.56;;;11.07;82.22
8699;BME280;4386;51.236;6.742;2022-11-04T04:21:18;99937.09;;;11.07;82.28
8699;BME280;4386;51.236;6.742;2022-11-04T04:22:24;99951.06;;;11.09;82.20
8699;BME280;4386;51.236;6.742;2022-11-04T04:23:29;99946.56;;;11.10;82.33
8699;BME280;4386;51.236;6.742;2022-11-04T04:24:53;99947.28;;;11.12;82.20
8699;BME280;4386;51.236;6.742;2022-11-04T04:26:18;99953.25;;;11.14;82.24
8699;BME280;4386;51.236;6.742;2022-11-04T04:27:40;99953.97;;;11.16;82.20
8699;BME280;4386;51.236;6.742;2022-11-04T04:28:44;99944.34;;;11.15;82.16
8699;BME280;4386;51.236;6.742;2022-11-04T04:29:47;99956.63;;;11.16;82.00
8699;BME280;4386;51.236;6.742;2022-11-04T04:30:52;99948.53;;;11.17;82.29
8699;BME280;4386;51.236;6.742;2022-11-04T04:32:03;99957.31;;;11.18;82.05
8699;BME280;4386;51.236;6.742;2022-11-04T04:33:08;99954.38;;;11.21;82.31
8699;BME280;4386;51.236;6.742;2022-11-04T04:34:11;99956.88;;;11.22;82.23
8699;BME280;4386;51.236;6.742;2022-11-04T04:35:14;99959.53;;;11.22;82.21
8699;BME280;4386;51.236;6.742;2022-11-04T04:36:41;99955.78;;;11.25;82.35
8699;BME280;4386;51.236;6.742;2022-11-04T04:37:47;99955.63;;;11.26;82.36
8699;BME280;4386;51.236;6.742;2022-11-04T04:38:50;99957.13;;;11.29;82.17
8699;BME280;4386;51.236;6.742;2022-11-04T04:40:18;99952.53;;;11.31;82.09
8699;BME280;4386;51.236;6.742;2022-11-04T04:41:42;99948.75;;;11.33;82.26
8699;BME280;4386;51.236;6.742;2022-11-04T04:43:03;99953.94;;;11.35;82.15
8699;BME280;4386;51.236;6.742;2022-11-04T04:44:25;99952.94;;;11.36;82.02
8699;BME280;4386;51.236;6.742;2022-11-04T04:45:48;99954.63;;;11.37;81.88
8699;BME280;4386;51.236;6.742;2022-11-04T04:46:52;99955.47;;;11.37;81.75
8699;BME280;4386;51.236;6.742;2022-11-04T04:47:55;99952.66;;;11.39;81.80
8699;BME280;4386;51.236;6.742;2022-11-04T04:49:03;99950.72;;;11.41;81.87
8699;BME280;4386;51.236;6.742;2022-11-04T04:50:07;99954.03;;;11.43;81.85
8699;BME280;4386;51.236;6.742;2022-11-04T04:51:10;99952.09;;;11.45;81.76
8699;BME280;4386;51.236;6.742;2022-11-04T04:52:11;99951.09;;;11.46;81.37
8699;BME280;4386;51.236;6.742;2022-11-04T04:53:14;99950.97;;;11.47;81.60
8699;BME280;4386;51.236;6.742;2022-11-04T04:54:16;99955.97;;;11.50;81.60
8699;BME280;4386;51.236;6.742;2022-11-04T04:55:18;99958.63;;;11.50;81.61
8699;BME280;4386;51.236;6.742;2022-11-04T04:56:21;99967.44;;;11.51;81.52
8699;BME280;4386;51.236;6.742;2022-11-04T04:57:23;99966.44;;;11.52;81.49
8699;BME280;4386;51.236;6.742;2022-11-04T04:58:27;99965.63;;;11.52;81.26
8699;BME280;4386;51.236;6.742;2022-11-04T04:59:29;99968.41;;;11.50;81.32
8699;BME280;4386;51.236;6.742;2022-11-04T05:00:31;99962.41;;;11.48;81.24
8699;BME280;4386;51.236;6.742;2022-11-04T05:01:34;99962.72;;;11.45;81.06
8699;BME280;4386;51.236;6.742;2022-11-04T05:02:35;99965.50;;;11.43;81.11
8699;BME280;4386;51.236;6.742;2022-11-04T05:03:38;99966.63;;;11.41;81.21
8699;BME280;4386;51.236;6.742;2022-11-04T05:04:45;99965.09;;;11.38;81.13
8699;BME280;4386;51.236;6.742;2022-11-04T05:05:49;99963.53;;;11.36;80.98
8699;BME280;4386;51.236;6.742;2022-11-04T05:06:55;99966.34;;;11.34;81.01
8699;BME280;4386;51.236;6.742;2022-11-04T05:08:03;99967.50;;;11.32;80.91
8699;BME280;4386;51.236;6.742;2022-11-04T05:09:10;99963.16;;;11.31;81.07
8699;BME280;4386;51.236;6.742;2022-11-04T05:10:13;99962.19;;;11.32;80.93
8699;BME280;4386;51.236;6.742;2022-11-04T05:11:16;99967.50;;;11.32;81.10
8699;BME280;4386;51.236;6.742;2022-11-04T05:12:23;99962.19;;;11.32;80.97
8699;BME280;4386;51.236;6.742;2022-11-04T05:13:25;99955.19;;;11.31;81.16
8699;BME280;4386;51.236;6.742;2022-11-04T05:14:27;99957.69;;;11.32;80.87
8699;BME280;4386;51.236;6.742;2022-11-04T05:15:29;99953.22;;;11.33;80.84
8699;BME280;4386;51.236;6.742;2022-11-04T05:16:32;99960.22;;;11.34;80.96
8699;BME280;4386;51.236;6.742;2022-11-04T05:17:41;99955.75;;;11.34;80.53
8699;BME280;4386;51.236;6.742;2022-11-04T05:18:43;99956.59;;;11.35;80.78
8699;BME280;4386;51.236;6.742;2022-11-04T05:19:45;99958.53;;;11.33;80.64
8699;BME280;4386;51.236;6.742;2022-11-04T05:20:49;99964.84;;;11.32;80.70
8699;BME280;4386;51.236;6.742;2022-11-04T05:21:50;99969.44;;;11.30;80.66
8699;BME280;4386;51.236;6.742;2022-11-04T05:22:53;99966.09;;;11.28;80.60
8699;BME280;4386;51.236;6.742;2022-11-04T05:23:55;99962.72;;;11.26;80.55
8699;BME280;4386;51.236;6.742;2022-11-04T05:24:58;99968.31;;;11.23;80.45
8699;BME280;4386;51.236;6.742;2022-11-04T05:25:59;99968.31;;;11.23;80.53
8699;BME280;4386;51.236;6.742;2022-11-04T05:27:02;99970.28;;;11.21;80.81
8699;BME280;4386;51.236;6.742;2022-11-04T05:28:04;99966.97;;;11.19;80.51
8699;BME280;4386;51.236;6.742;2022-11-04T05:29:07;99972.25;;;11.19;80.49
8699;BME280;4386;51.236;6.742;2022-11-04T05:30:10;99971.41;;;11.18;80.59
8699;BME280;4386;51.236;6.742;2022-11-04T05:31:12;99966.13;;;11.18;80.57
8699;BME280;4386;51.236;6.742;2022-11-04T05:32:14;99968.88;;;11.17;80.47
8699;BME280;4386;51.236;6.742;2022-11-04T05:33:17;99979.50;;;11.17;80.47
8699;BME280;4386;51.236;6.742;2022-11-04T05:34:19;99978.53;;;11.18;80.55
8699;BME280;4386;51.236;6.742;2022-11-04T05:35:21;99976.72;;;11.18;80.62
8699;BME280;4386;51.236;6.742;2022-11-04T05:36:25;99971.41;;;11.18;80.57
8699;BME280;4386;51.236;6.742;2022-11-04T05:37:27;99973.91;;;11.20;80.54
8699;BME280;4386;51.236;6.742;2022-11-04T05:38:29;99975.59;;;11.21;80.51
8699;BME280;4386;51.236;6.742;2022-11-04T05:39:31;99978.09;;;11.22;80.60
8699;BME280;4386;51.236;6.742;2022-11-04T05:40:34;99973.63;;;11.23;80.72
8699;BME280;4386;51.236;6.742;2022-11-04T05:41:35;99978.94;;;11.23;80.40
8699;BME280;4386;51.236;6.742;2022-11-04T05:42:38;99976.44;;;11.21;80.58
8699;BME280;4386;51.236;6.742;2022-11-04T05:43:39;99975.59;;;11.21;80.53
8699;BME280;4386;51.236;6.742;2022-11-04T05:44:42;99982.88;;;11.19;80.52
8699;BME280;4386;51.236;6.742;2022-11-04T05:45:43;99982.16;;;11.17;80.51
8699;BME280;4386;51.236;6.742;2022-11-04T05:46:46;99977.84;;;11.16;80.58
8699;BME280;4386;51.236;6.742;2022-11-04T05:47:48;99982.59;;;11.12;80.53
8699;BME280;4386;51.236;6.742;2022-11-04T05:48:57;99980.91;;;11.11;80.50
8699;BME280;4386;51.236;6.742;2022-11-04T05:49:59;99981.03;;;11.10;80.65
8699;BME280;4386;51.236;6.742;2022-11-04T05:51:02;99983.00;;;11.08;80.50
8699;BME280;4386;51.236;6.742;2022-11-04T05:52:05;99978.66;;;11.07;80.67
8699;BME280;4386;51.236;6.742;2022-11-04T05:53:08;99981.31;;;11.07;80.68
8699;BME280;4386;51.236;6.742;2022-11-04T05:54:10;99980.34;;;11.08;80.67
8699;BME280;4386;51.236;6.742;2022-11-04T05:55:13;99976.75;;;11.09;80.70
8699;BME280;4386;51.236;6.742;2022-11-04T05:56:14;99975.75;;;11.10;80.59
8699;BME280;4386;51.236;6.742;2022-11-04T05:57:17;99979.22;;;11.10;80.57
8699;BME280;4386;51.236;6.742;2022-11-04T05:58:18;99971.28;;;11.10;80.55
8699;BME280;4386;51.236;6.742;2022-11-04T05:59:21;99978.38;;;11.10;80.76
8699;BME280;4386;51.236;6.742;2022-11-04T06:00:24;99978.38;;;11.10;80.46
8699;BME280;4386;51.236;6.742;2022-11-04T06:01:29;99976.75;;;11.09;80.57
8699;BME280;4386;51.236;6.742;2022-11-04T06:02:32;99981.31;;;11.07;80.48
8699;BME280;4386;51.236;6.742;2022-11-04T06:03:34;99976.19;;;11.05;80.41